Time;durP1;ratioP1;P1;durP2;ratioP2;P2;SDS_P1;SDS_P2;PMS_P1;PMS_P2;Temp;Humidity;BMP_temperature;BMP_pressure;BME280_temperature;BME280_humidity;BME280_pressure;Samples;Min_cycle;Max_cycle;Signal;HPM_P1;HPM_P2
2021/07/05 00:00:22;;;;;;;3.07;1.53;;;;;;;12.20;100.00;93580.84;5135090;27;20529;-79
2021/07/05 00:02:48;;;;;;;8.40;2.10;;;;;;;12.27;100.00;93580.78;5135211;27;20295;-80
2021/07/05 00:05:15;;;;;;;3.33;2.03;;;;;;;12.19;100.00;93594.97;5135197;27;20197;-80
2021/07/05 00:07:46;;;;;;;5.53;2.07;;;;;;;12.17;100.00;93593.56;5135203;27;20197;-79
2021/07/05 00:10:15;;;;;;;2.37;1.90;;;;;;;12.21;100.00;93597.38;5135024;27;20300;-79
2021/07/05 00:12:45;;;;;;;2.77;1.93;;;;;;;12.23;100.00;93599.78;5134815;27;20193;-80
2021/07/05 00:15:13;;;;;;;4.50;1.60;;;;;;;12.31;100.00;93594.25;5134881;27;20205;-79
2021/07/05 00:17:39;;;;;;;5.90;1.90;;;;;;;12.26;100.00;93586.22;5135564;27;20203;-82
2021/07/05 00:20:08;;;;;;;3.57;2.33;;;;;;;12.16;100.00;93578.88;5134926;27;20204;-80
2021/07/05 00:22:35;;;;;;;3.70;1.90;;;;;;;12.07;100.00;93583.56;5134448;27;20212;-80
2021/07/05 00:25:01;;;;;;;4.53;1.80;;;;;;;11.97;100.00;93573.63;5134609;27;20203;-79
2021/07/05 00:27:29;;;;;;;1.90;1.50;;;;;;;11.91;100.00;93566.63;5134502;27;20604;-78
2021/07/05 00:29:55;;;;;;;3.30;1.93;;;;;;;11.79;100.00;93568.25;5126701;27;20719;-78
2021/07/05 00:32:22;;;;;;;4.10;2.07;;;;;;;11.87;100.00;93573.25;5114201;28;20205;-79
2021/07/05 00:34:48;;;;;;;4.60;2.10;;;;;;;11.90;100.00;93575.44;5114091;28;20259;-79
2021/07/05 00:37:15;;;;;;;4.90;2.85;;;;;;;11.89;100.00;93583.50;5112773;28;20755;-81
2021/07/05 00:39:41;;;;;;;4.47;2.37;;;;;;;11.83;100.00;93585.94;5131413;27;20208;-78
2021/07/05 00:42:08;;;;;;;4.57;2.20;;;;;;;11.81;100.00;93582.75;5134175;27;20192;-81
2021/07/05 00:44:37;;;;;;;4.67;2.33;;;;;;;11.75;100.00;93574.94;5134551;27;20204;-79
2021/07/05 00:47:03;;;;;;;3.37;2.00;;;;;;;11.65;100.00;93563.13;5134349;27;20287;-79
2021/07/05 00:49:30;;;;;;;4.20;2.17;;;;;;;11.60;100.00;93572.63;5134039;27;20732;-79
2021/07/05 00:51:56;;;;;;;3.80;1.80;;;;;;;11.58;100.00;93559.78;5134378;27;20208;-80
2021/07/05 00:54:23;;;;;;;3.10;2.10;;;;;;;11.67;100.00;93555.06;5134164;27;20253;-79
2021/07/05 00:56:51;;;;;;;3.27;2.23;;;;;;;11.66;100.00;93556.91;5134209;27;20223;-79
2021/07/05 00:59:18;;;;;;;7.20;2.80;;;;;;;11.76;100.00;93566.91;5134215;27;20206;-79
2021/07/05 01:01:46;;;;;;;4.03;2.50;;;;;;;11.83;100.00;93559.78;5134186;27;20205;-78
2021/07/05 01:04:13;;;;;;;5.00;3.27;;;;;;;11.93;100.00;93574.25;5134134;27;20200;-80
2021/07/05 01:06:39;;;;;;;7.57;2.67;;;;;;;11.88;100.00;93576.69;5134001;27;20203;-79
2021/07/05 01:09:06;;;;;;;9.17;2.33;;;;;;;11.86;100.00;93576.88;5133988;27;20264;-78
2021/07/05 01:11:32;;;;;;;5.17;2.07;;;;;;;11.92;100.00;93570.03;5133780;27;20567;-79
2021/07/05 01:13:59;;;;;;;6.67;2.70;;;;;;;12.04;100.00;93563.09;5133990;27;20201;-79
2021/07/05 01:16:25;;;;;;;10.07;2.70;;;;;;;12.06;100.00;93573.31;5133786;28;20670;-80
2021/07/05 01:18:53;;;;;;;3.75;2.47;;;;;;;11.98;100.00;93575.19;5133637;28;20430;-81
2021/07/05 01:21:22;;;;;;;4.63;2.27;;;;;;;11.97;100.00;93567.56;5133882;28;20200;-82
2021/07/05 01:23:49;;;;;;;8.00;2.20;;;;;;;11.95;100.00;93564.38;5133794;28;20686;-80
2021/07/05 01:26:15;;;;;;;3.67;2.37;;;;;;;11.96;100.00;93563.34;5133964;28;20563;-80
2021/07/05 01:28:42;;;;;;;6.77;2.27;;;;;;;12.01;100.00;93553.06;5133537;28;20233;-82
2021/07/05 01:31:08;;;;;;;2.73;2.03;;;;;;;12.00;100.00;93557.47;5133868;28;20201;-80
2021/07/05 01:33:35;;;;;;;6.40;2.80;;;;;;;12.01;100.00;93555.66;5133923;27;20581;-80
2021/07/05 01:36:02;;;;;;;3.33;2.30;;;;;;;12.11;100.00;93553.34;5136258;27;20204;-80
2021/07/05 01:38:30;;;;;;;3.37;2.50;;;;;;;12.07;100.00;93551.38;5138371;27;20196;-79
2021/07/05 01:41:00;;;;;;;5.13;2.43;;;;;;;11.97;100.00;93547.44;5138176;27;20207;-78
2021/07/05 01:43:27;;;;;;;4.97;2.23;;;;;;;11.98;100.00;93551.66;5137937;27;20562;-78
2021/07/05 01:45:53;;;;;;;6.80;2.23;;;;;;;12.05;100.00;93546.38;5137935;27;20199;-78
2021/07/05 01:48:20;;;;;;;5.90;2.27;;;;;;;12.09;100.00;93542.31;5137542;27;20659;-79
2021/07/05 01:50:47;;;;;;;7.93;2.43;;;;;;;12.17;100.00;93551.69;5137598;27;20201;-79
2021/07/05 01:53:14;;;;;;;6.33;2.60;;;;;;;12.19;100.00;93547.84;5137606;27;20211;-78
2021/07/05 01:55:42;;;;;;;6.33;2.63;;;;;;;12.26;100.00;93539.94;5137660;27;20207;-78
2021/07/05 01:58:09;;;;;;;4.27;2.50;;;;;;;12.31;100.00;93532.22;5137341;27;20213;-78
2021/07/05 02:00:37;;;;;;;7.00;2.97;;;;;;;12.37;100.00;93539.22;5137440;27;20200;-79
2021/07/05 02:03:04;;;;;;;4.57;2.43;;;;;;;12.42;100.00;93535.94;5137513;27;20193;-78
2021/07/05 02:05:31;;;;;;;12.43;2.40;;;;;;;12.38;100.00;93542.63;5137370;27;20211;-79
2021/07/05 02:07:58;;;;;;;5.63;2.33;;;;;;;12.34;100.00;93542.28;5137548;27;20200;-82
2021/07/05 02:10:28;;;;;;;6.00;2.20;;;;;;;12.31;100.00;93534.84;5137367;27;20220;-79
2021/07/05 02:12:57;;;;;;;3.47;2.10;;;;;;;12.31;100.00;93542.69;5137364;27;20204;-79
2021/07/05 02:15:25;;;;;;;6.53;2.20;;;;;;;12.31;100.00;93541.91;5137173;27;20203;-78
2021/07/05 02:17:52;;;;;;;3.47;2.37;;;;;;;12.32;100.00;93548.72;5137167;27;20594;-78
2021/07/05 02:20:21;;;;;;;3.40;2.37;;;;;;;12.39;100.00;93539.00;5137076;27;20211;-78
2021/07/05 02:22:50;;;;;;;4.80;2.73;;;;;;;12.43;100.00;93537.53;5137228;27;20205;-79
2021/07/05 02:25:17;;;;;;;5.40;2.80;;;;;;;12.39;100.00;93531.94;5137335;27;20590;-78
2021/07/05 02:27:44;;;;;;;4.30;2.33;;;;;;;12.35;100.00;93532.59;5136965;27;20197;-80
2021/07/05 02:30:15;;;;;;;5.70;2.37;;;;;;;12.35;100.00;93529.97;5136985;27;20231;-79
2021/07/05 02:32:42;;;;;;;3.70;2.53;;;;;;;12.36;100.00;93516.66;5136942;27;20200;-80
2021/07/05 02:35:11;;;;;;;5.60;2.40;;;;;;;12.34;100.00;93517.88;5136986;27;20200;-78
2021/07/05 02:37:38;;;;;;;4.00;2.50;;;;;;;12.31;100.00;93518.34;5136947;27;20203;-79
2021/07/05 02:40:06;;;;;;;4.73;2.70;;;;;;;12.27;100.00;93498.84;5136854;27;20196;-77
2021/07/05 02:42:33;;;;;;;3.73;2.47;;;;;;;12.21;100.00;93505.75;5136804;27;20197;-78
2021/07/05 02:45:00;;;;;;;5.70;2.93;;;;;;;12.20;100.00;93510.19;5136720;27;20208;-80
2021/07/05 02:47:28;;;;;;;5.57;2.13;;;;;;;12.06;100.00;93526.22;5136195;27;20201;-77
2021/07/05 02:49:54;;;;;;;5.47;2.33;;;;;;;12.12;100.00;93520.91;5136597;27;20273;-79
2021/07/05 02:52:21;;;;;;;4.30;2.40;;;;;;;12.07;100.00;93527.84;5136434;27;20678;-79
2021/07/05 02:54:47;;;;;;;3.67;2.43;;;;;;;12.01;100.00;93535.53;5136561;27;20201;-79
2021/07/05 02:57:29;;;;;;;3.13;2.10;;;;;;;12.03;100.00;93536.09;5136446;27;20197;-79
2021/07/05 02:59:56;;;;;;;4.27;2.50;;;;;;;12.11;100.00;93548.13;5136534;27;20261;-80
2021/07/05 03:02:22;;;;;;;3.47;2.33;;;;;;;12.15;100.00;93541.44;5136161;27;20566;-77
2021/07/05 03:04:50;;;;;;;7.10;2.40;;;;;;;12.26;100.00;93541.72;5136313;27;20200;-79
2021/07/05 03:07:17;;;;;;;5.03;2.67;;;;;;;12.38;100.00;93547.88;5136287;27;20208;-81
2021/07/05 03:09:43;;;;;;;4.07;2.20;;;;;;;12.43;100.00;93545.41;5136249;27;20300;-80
2021/07/05 03:12:11;;;;;;;4.63;2.50;;;;;;;12.55;100.00;93537.63;5135910;27;20207;-77
2021/07/05 03:14:38;;;;;;;4.23;2.30;;;;;;;12.67;100.00;93540.31;5136301;27;20201;-79
2021/07/05 03:17:04;;;;;;;5.57;2.47;;;;;;;12.73;100.00;93545.47;5136106;27;20193;-77
2021/07/05 03:19:31;;;;;;;4.63;1.97;;;;;;;12.66;100.00;93544.75;5135904;27;20724;-78
2021/07/05 03:21:59;;;;;;;3.20;2.20;;;;;;;12.64;100.00;93538.13;5135909;27;20192;-78
2021/07/05 03:24:25;;;;;;;4.47;2.03;;;;;;;12.62;100.00;93537.53;5135865;27;20200;-78
2021/07/05 03:26:52;;;;;;;6.33;2.60;;;;;;;12.63;100.00;93528.69;5135788;27;20651;-78
2021/07/05 03:29:18;;;;;;;4.60;2.13;;;;;;;12.62;100.00;93521.84;5135530;27;20236;-79
2021/07/05 03:31:45;;;;;;;3.73;2.50;;;;;;;12.62;100.00;93525.25;5135965;27;20196;-78
2021/07/05 03:34:11;;;;;;;5.00;2.13;;;;;;;12.64;100.00;93518.00;5135649;27;20197;-78
2021/07/05 03:36:38;;;;;;;7.33;2.50;;;;;;;12.70;100.00;93517.09;5135548;27;20201;-78
2021/07/05 03:39:06;;;;;;;4.57;2.23;;;;;;;12.73;100.00;93516.66;5135649;27;20201;-80
2021/07/05 03:41:32;;;;;;;2.97;2.00;;;;;;;12.71;100.00;93517.91;5135003;27;20201;-79
2021/07/05 03:43:59;;;;;;;4.73;2.10;;;;;;;12.65;100.00;93516.94;5135672;27;20227;-78
2021/07/05 03:46:25;;;;;;;5.70;2.00;;;;;;;12.62;100.00;93506.91;5135505;27;20200;-77
2021/07/05 03:48:52;;;;;;;3.83;2.37;;;;;;;12.61;100.00;93502.72;5135438;27;20205;-77
2021/07/05 03:51:18;;;;;;;5.93;2.43;;;;;;;12.63;100.00;93492.00;5135203;27;20224;-77
2021/07/05 03:53:45;;;;;;;5.43;1.83;;;;;;;12.62;100.00;93487.78;5135209;27;20197;-79
2021/07/05 03:56:13;;;;;;;4.17;2.53;;;;;;;12.58;100.00;93490.84;5135128;27;20197;-80
2021/07/05 03:58:39;;;;;;;6.47;2.33;;;;;;;12.61;100.00;93500.09;5134531;27;20559;-77
2021/07/05 04:01:06;;;;;;;3.93;2.40;;;;;;;12.59;100.00;93497.69;5135205;27;20200;-79
2021/07/05 04:03:32;;;;;;;3.83;2.53;;;;;;;12.63;100.00;93494.63;5135209;27;20193;-77
2021/07/05 04:05:59;;;;;;;3.57;2.20;;;;;;;12.62;100.00;93495.66;5135064;27;20197;-76
2021/07/05 04:08:27;;;;;;;3.70;2.57;;;;;;;12.65;100.00;93505.69;5135014;27;20204;-77
2021/07/05 04:10:54;;;;;;;4.87;2.10;;;;;;;12.71;100.00;93510.06;5135138;27;20224;-78
2021/07/05 04:13:22;;;;;;;5.00;2.47;;;;;;;12.74;100.00;93504.38;5135111;27;20208;-78
2021/07/05 04:15:49;;;;;;;3.60;2.60;;;;;;;12.73;100.00;93505.38;5135009;27;20203;-78
2021/07/05 04:18:16;;;;;;;5.53;2.73;;;;;;;12.78;100.00;93511.56;5134885;27;20204;-78
2021/07/05 04:20:42;;;;;;;5.23;2.30;;;;;;;12.82;100.00;93504.06;5134757;27;20716;-79
2021/07/05 04:23:09;;;;;;;3.13;2.00;;;;;;;12.86;100.00;93501.81;5134550;27;20197;-79
2021/07/05 04:25:36;;;;;;;2.73;1.93;;;;;;;12.88;100.00;93505.00;5134786;27;20204;-79
2021/07/05 04:28:04;;;;;;;4.07;2.37;;;;;;;12.93;100.00;93507.75;5134691;27;20236;-77
2021/07/05 04:30:33;;;;;;;4.03;2.20;;;;;;;12.96;100.00;93508.09;5134430;27;20753;-78
2021/07/05 04:33:01;;;;;;;4.70;2.17;;;;;;;13.01;100.00;93499.59;5134580;27;20200;-78
2021/07/05 04:35:27;;;;;;;3.97;2.10;;;;;;;13.08;100.00;93516.00;5134419;27;20204;-77
2021/07/05 04:37:56;;;;;;;4.67;2.20;;;;;;;13.17;100.00;93508.63;5134429;27;20192;-78
2021/07/05 04:40:24;;;;;;;3.03;1.90;;;;;;;13.28;100.00;93515.75;5134420;27;20204;-78
2021/07/05 04:42:51;;;;;;;2.83;1.97;;;;;;;13.25;100.00;93531.91;5134347;27;20196;-77
2021/07/05 04:45:20;;;;;;;3.70;1.73;;;;;;;13.38;100.00;93530.97;5134286;27;20651;-78
2021/07/05 04:47:49;;;;;;;3.63;1.73;;;;;;;13.39;100.00;93529.97;5134168;27;20678;-78
2021/07/05 04:50:16;;;;;;;4.10;1.83;;;;;;;13.44;100.00;93531.88;5134173;27;20315;-81
2021/07/05 04:52:43;;;;;;;2.97;1.50;;;;;;;13.50;100.00;93528.38;5134374;27;20200;-80
2021/07/05 04:55:12;;;;;;;2.25;1.63;;;;;;;13.58;100.00;93522.81;5134134;27;20204;-78
2021/07/05 04:57:40;;;;;;;4.13;1.85;;;;;;;13.59;100.00;93513.94;5134091;27;20203;-81
2021/07/05 05:00:09;;;;;;;3.10;1.30;;;;;;;13.63;100.00;93511.66;5134167;27;20225;-80
2021/07/05 05:02:37;;;;;;;2.35;1.73;;;;;;;13.75;100.00;93514.28;5133999;27;20196;-80
2021/07/05 05:05:06;;;;;;;4.00;1.80;;;;;;;13.81;100.00;93510.75;5134124;27;20253;-78
2021/07/05 05:07:33;;;;;;;3.47;1.80;;;;;;;13.79;100.00;93515.41;5134221;27;20197;-78
2021/07/05 05:10:01;;;;;;;3.72;1.40;;;;;;;13.85;100.00;93504.03;5134021;27;20224;-78
2021/07/05 05:12:28;;;;;;;1.85;1.50;;;;;;;13.81;100.00;93511.56;5134087;27;20205;-79
2021/07/05 05:14:54;;;;;;;3.55;1.75;;;;;;;13.91;100.00;93503.13;5133916;28;20208;-80
2021/07/05 05:17:21;;;;;;;1.77;1.40;;;;;;;13.89;100.00;93505.19;5133722;28;20219;-80
2021/07/05 05:19:48;;;;;;;1.95;1.63;;;;;;;13.96;100.00;93515.56;5134089;28;20227;-79
2021/07/05 05:22:16;;;;;;;1.17;1.08;;;;;;;13.96;100.00;93519.00;5134004;28;20204;-80
2021/07/05 05:24:42;;;;;;;2.50;1.50;;;;;;;13.90;100.00;93527.75;5133965;28;20193;-80
2021/07/05 05:27:09;;;;;;;2.47;1.30;;;;;;;13.85;100.00;93525.03;5133817;28;20205;-79
2021/07/05 05:29:36;;;;;;;3.90;1.73;;;;;;;13.83;100.00;93522.63;5133821;28;20228;-80
2021/07/05 05:32:03;;;;;;;3.70;1.27;;;;;;;13.79;100.00;93518.88;5133586;28;20218;-78
2021/07/05 05:34:29;;;;;;;3.25;1.30;;;;;;;13.84;100.00;93518.19;5133384;28;20192;-79
2021/07/05 05:36:56;;;;;;;1.90;1.38;;;;;;;13.83;100.00;93527.88;5133792;28;20201;-80
2021/07/05 05:39:26;;;;;;;5.20;1.23;;;;;;;13.82;100.00;93526.28;5133788;28;20200;-78
2021/07/05 05:41:53;;;;;;;3.08;1.50;;;;;;;13.90;100.00;93530.38;5133662;28;20204;-77
2021/07/05 05:44:19;;;;;;;3.08;1.52;;;;;;;13.98;100.00;93540.56;5133546;28;20203;-78
2021/07/05 05:46:46;;;;;;;2.45;1.10;;;;;;;14.01;100.00;93534.84;5133863;28;20184;-79
2021/07/05 05:49:12;;;;;;;4.45;1.10;;;;;;;14.06;100.00;93529.72;5133791;28;20204;-78
2021/07/05 05:51:39;;;;;;;2.70;1.55;;;;;;;14.13;100.00;93542.72;5133364;28;20694;-80
2021/07/05 05:54:08;;;;;;;2.15;1.33;;;;;;;14.23;100.00;93540.31;5133688;28;20201;-78
2021/07/05 05:56:38;;;;;;;3.33;1.30;;;;;;;14.24;100.00;93539.31;5133560;28;20200;-77
2021/07/05 05:59:09;;;;;;;1.88;1.38;;;;;;;14.27;100.00;93543.28;5133626;28;20262;-78
2021/07/05 06:01:38;;;;;;;2.88;1.58;;;;;;;14.46;100.00;93530.84;5133590;28;20201;-78
2021/07/05 06:04:05;;;;;;;1.20;1.10;;;;;;;14.51;100.00;93532.78;5133529;28;20245;-79
2021/07/05 06:06:33;;;;;;;3.22;1.30;;;;;;;14.61;100.00;93543.53;5133563;28;20200;-78
2021/07/05 06:09:00;;;;;;;5.63;1.27;;;;;;;14.67;100.00;93553.13;5133561;28;20287;-78
2021/07/05 06:11:26;;;;;;;1.75;1.30;;;;;;;14.73;100.00;93548.78;5133264;28;20230;-78
2021/07/05 06:13:54;;;;;;;2.10;1.45;;;;;;;14.79;100.00;93551.28;5133557;28;20548;-77
2021/07/05 06:16:20;;;;;;;2.53;1.20;;;;;;;14.80;100.00;93542.38;5133309;28;20200;-79
2021/07/05 06:18:47;;;;;;;2.83;1.45;;;;;;;14.74;100.00;93535.41;5133436;28;20249;-78
2021/07/05 06:21:13;;;;;;;1.58;0.90;;;;;;;14.65;100.00;93528.09;5134838;27;20215;-79
2021/07/05 06:23:40;;;;;;;3.08;1.17;;;;;;;14.86;100.00;93524.84;5137067;27;20205;-77
2021/07/05 06:26:06;;;;;;;3.20;1.15;;;;;;;14.82;100.00;93517.66;5136912;27;20200;-78
2021/07/05 06:28:35;;;;;;;0.90;0.82;;;;;;;14.85;100.00;93519.84;5136634;27;20220;-78
2021/07/05 06:31:04;;;;;;;1.80;1.05;;;;;;;14.86;100.00;93522.22;5136708;27;20628;-78
2021/07/05 06:33:31;;;;;;;1.50;1.20;;;;;;;14.84;100.00;93523.47;5136977;27;20245;-77
2021/07/05 06:35:58;;;;;;;1.05;0.90;;;;;;;14.93;100.00;93516.84;5136874;27;20223;-79
2021/07/05 06:38:25;;;;;;;1.60;1.17;;;;;;;14.98;100.00;93527.44;5136765;27;20228;-80
2021/07/05 06:40:52;;;;;;;1.58;1.17;;;;;;;14.93;100.00;93522.09;5137002;27;20223;-80
2021/07/05 06:43:19;;;;;;;1.20;1.10;;;;;;;15.08;100.00;93529.47;5136859;27;20197;-78
2021/07/05 06:45:46;;;;;;;5.50;1.00;;;;;;;15.04;100.00;93528.34;5136750;27;20197;-78
2021/07/05 06:48:14;;;;;;;1.58;1.00;;;;;;;15.11;100.00;93531.66;5136685;27;20273;-78
2021/07/05 06:50:40;;;;;;;1.75;1.00;;;;;;;15.07;100.00;93525.25;5136491;27;20236;-77
2021/07/05 06:53:09;;;;;;;1.88;1.00;;;;;;;15.25;100.00;93532.16;5136395;27;20589;-77
2021/07/05 06:55:35;;;;;;;1.55;1.00;;;;;;;15.21;100.00;93531.84;5136649;27;20562;-80
2021/07/05 06:58:03;;;;;;;1.73;1.10;;;;;;;15.30;100.00;93529.63;5136398;27;20209;-79
2021/07/05 07:00:30;;;;;;;4.35;1.40;;;;;;;15.44;100.00;93525.69;5136433;27;20201;-80
2021/07/05 07:02:59;;;;;;;3.05;0.80;;;;;;;15.53;100.00;93518.19;5136304;27;20793;-78
2021/07/05 07:05:29;;;;;;;1.75;0.95;;;;;;;15.68;100.00;93526.31;5136188;27;20201;-77
2021/07/05 07:07:57;;;;;;;1.38;0.80;;;;;;;15.89;100.00;93532.75;5136154;27;20200;-77
2021/07/05 07:10:25;;;;;;;0.88;0.88;;;;;;;15.92;100.00;93531.50;5136346;27;20298;-77
2021/07/05 07:12:54;;;;;;;1.45;0.80;;;;;;;15.75;100.00;93535.91;5136261;27;20200;-76
2021/07/05 07:15:23;;;;;;;2.33;1.00;;;;;;;15.62;100.00;93537.81;5136099;27;20192;-77
2021/07/05 07:17:51;;;;;;;1.30;0.88;;;;;;;15.45;100.00;93529.88;5136072;27;20197;-76
2021/07/05 07:20:18;;;;;;;1.30;0.98;;;;;;;15.27;100.00;93535.34;5135914;27;20204;-76
2021/07/05 07:22:46;;;;;;;3.33;0.93;;;;;;;15.50;100.00;93540.53;5136149;27;20196;-76
2021/07/05 07:25:14;;;;;;;1.10;0.90;;;;;;;15.67;100.00;93540.53;5135909;27;20212;-77
2021/07/05 07:27:42;;;;;;;1.55;0.85;;;;;;;15.73;100.00;93539.56;5135632;27;20652;-76
2021/07/05 07:30:10;;;;;;;1.05;0.80;;;;;;;15.59;100.00;93529.59;5135842;27;20253;-77
2021/07/05 07:32:37;;;;;;;1.08;0.98;;;;;;;15.59;100.00;93537.47;5134323;27;20674;-79
2021/07/05 07:35:05;;;;;;;1.00;0.75;;;;;;;15.75;100.00;93528.81;5135894;27;20208;-79
2021/07/05 07:37:32;;;;;;;1.17;1.08;;;;;;;15.67;100.00;93522.13;5135533;27;20204;-77
2021/07/05 07:40:04;;;;;;;1.00;0.90;;;;;;;15.62;100.00;93529.13;5135789;27;20204;-77
2021/07/05 07:42:30;;;;;;;2.08;0.90;;;;;;;15.60;100.00;93531.19;5135004;27;20219;-79
2021/07/05 07:44:57;;;;;;;2.45;0.90;;;;;;;15.56;100.00;93517.72;5135421;27;20205;-77
2021/07/05 07:47:23;;;;;;;1.17;0.90;;;;;;;15.98;100.00;93519.19;5135585;27;20197;-78
2021/07/05 07:49:50;;;;;;;1.90;0.70;;;;;;;16.18;100.00;93510.81;5135531;27;20204;-78
2021/07/05 07:52:16;;;;;;;0.82;0.60;;;;;;;16.46;100.00;93505.41;5135438;27;20708;-79
2021/07/05 07:54:42;;;;;;;2.60;0.73;;;;;;;16.56;100.00;93515.28;5134314;27;20429;-78
2021/07/05 07:57:16;;;;;;;1.92;0.65;;;;;;;16.70;100.00;93507.00;5135463;27;20204;-81
2021/07/05 07:59:42;;;;;;;1.95;0.80;;;;;;;16.78;100.00;93507.38;5139257;27;20223;-83
2021/07/05 08:02:10;;;;;;;1.08;0.70;;;;;;;17.00;100.00;93509.25;5147881;27;20655;-83
2021/07/05 08:04:37;;;;;;;1.80;0.50;;;;;;;17.17;100.00;93509.19;5141088;27;20200;-84
2021/07/05 08:07:04;;;;;;;3.03;0.70;;;;;;;17.28;100.00;93508.22;5129870;27;20624;-81
2021/07/05 08:09:30;;;;;;;0.60;0.52;;;;;;;16.92;100.00;93507.03;5139083;27;20197;-81
2021/07/05 08:11:57;;;;;;;1.00;0.90;;;;;;;16.86;100.00;93500.13;5136939;27;20225;-80
2021/07/05 08:14:25;;;;;;;1.17;0.85;;;;;;;16.90;100.00;93504.63;5138558;27;20199;-80
2021/07/05 08:16:52;;;;;;;0.80;0.60;;;;;;;16.95;100.00;93507.38;5122846;27;20576;-81
2021/07/05 08:19:19;;;;;;;0.80;0.68;;;;;;;17.18;100.00;93505.47;5114524;28;20201;-81
2021/07/05 08:21:45;;;;;;;5.18;0.80;;;;;;;16.86;100.00;93494.84;5114501;28;20297;-80
2021/07/05 08:24:12;;;;;;;1.00;0.57;;;;;;;16.73;100.00;93498.63;5115145;28;20288;-82
2021/07/05 08:26:38;;;;;;;0.70;0.70;;;;;;;16.91;100.00;93498.34;5115126;28;20507;-81
2021/07/05 08:29:05;;;;;;;1.25;0.70;;;;;;;16.91;100.00;93500.97;5115597;28;20311;-83
2021/07/05 08:31:33;;;;;;;1.35;0.80;;;;;;;16.96;100.00;93501.03;5115339;28;20221;-80
2021/07/05 08:34:01;;;;;;;1.42;1.00;;;;;;;17.11;100.00;93507.53;5118091;28;20194;-81
2021/07/05 08:36:28;;;;;;;1.30;0.70;;;;;;;17.24;100.00;93511.63;5116314;28;20198;-82
2021/07/05 08:38:55;;;;;;;1.20;0.70;;;;;;;17.35;100.00;93511.47;5117493;28;20197;-82
2021/07/05 08:41:21;;;;;;;1.60;1.27;;;;;;;17.02;100.00;93501.91;5115611;28;20208;-84
2021/07/05 08:43:50;;;;;;;1.00;0.68;;;;;;;17.26;100.00;93505.03;5114560;28;20204;-81
2021/07/05 08:46:20;;;;;;;1.10;0.70;;;;;;;17.29;100.00;93498.50;5118242;28;20197;-83
2021/07/05 08:48:49;;;;;;;1.42;0.80;;;;;;;17.51;100.00;93499.22;5118880;28;20197;-83
2021/07/05 08:51:18;;;;;;;2.03;0.93;;;;;;;17.62;100.00;93499.31;5115607;28;20561;-83
2021/07/05 08:53:46;;;;;;;1.75;0.60;;;;;;;17.31;100.00;93494.53;5117424;28;20201;-83
2021/07/05 08:56:13;;;;;;;2.35;0.77;;;;;;;17.55;100.00;93492.41;5117901;28;20205;-79
2021/07/05 08:58:41;;;;;;;1.30;0.80;;;;;;;17.63;100.00;93485.06;5120431;28;20204;-82
2021/07/05 09:01:09;;;;;;;2.13;0.80;;;;;;;18.20;100.00;93475.72;5120586;28;20204;-83
2021/07/05 09:03:37;;;;;;;1.70;1.05;;;;;;;18.48;100.00;93464.81;5119782;28;20197;-83
2021/07/05 09:06:09;;;;;;;1.67;0.82;;;;;;;18.94;100.00;93460.78;5121274;28;20205;-83
2021/07/05 09:08:43;;;;;;;2.15;1.02;;;;;;;19.39;100.00;93468.03;5118642;28;20197;-80
2021/07/05 09:11:12;;;;;;;2.40;0.93;;;;;;;19.26;100.00;93465.88;5116392;28;20228;-82
2021/07/05 09:13:50;;;;;;;2.33;0.82;;;;;;;18.87;100.00;93466.31;5116109;28;20227;-82
2021/07/05 09:19:21;;;;;;;0.85;0.70;;;;;;;18.40;100.00;93457.38;5113793;28;20292;-80
2021/07/05 09:21:51;;;;;;;1.13;0.80;;;;;;;18.69;100.00;93464.88;5114971;28;20279;-81
2021/07/05 09:24:28;;;;;;;0.65;0.60;;;;;;;19.20;100.00;93466.91;5113220;28;20197;-80
2021/07/05 09:27:04;;;;;;;1.30;0.70;;;;;;;19.60;99.78;93468.03;5113626;28;20201;-81
2021/07/05 09:29:32;;;;;;;2.33;1.20;;;;;;;18.80;100.00;93471.00;5114833;28;20237;-80
2021/07/05 09:32:01;;;;;;;1.77;0.95;;;;;;;18.53;100.00;93474.59;5115701;28;20319;-80
2021/07/05 09:34:30;;;;;;;1.30;1.00;;;;;;;17.97;100.00;93480.34;5118416;28;20202;-81
2021/07/05 09:37:13;;;;;;;0.93;0.82;;;;;;;17.97;100.00;93483.00;5115245;28;20205;-81
2021/07/05 09:39:40;;;;;;;2.40;0.80;;;;;;;18.12;100.00;93482.31;5114640;28;20208;-80
2021/07/05 09:42:10;;;;;;;0.80;0.60;;;;;;;18.07;100.00;93480.41;5119578;28;20201;-80
2021/07/05 09:44:40;;;;;;;1.38;0.70;;;;;;;18.07;100.00;93480.41;5135893;28;20203;-82
2021/07/05 09:47:14;;;;;;;2.03;0.93;;;;;;;17.88;100.00;93492.41;5125324;28;20238;-84
2021/07/05 09:49:41;;;;;;;2.03;0.95;;;;;;;18.00;100.00;93486.97;5137783;28;20662;-83
2021/07/05 09:52:15;;;;;;;2.55;1.00;;;;;;;17.98;100.00;93495.13;5138396;28;20224;-80
2021/07/05 09:54:44;;;;;;;0.77;0.75;;;;;;;18.16;100.00;93486.03;5135991;27;20232;-82
2021/07/05 09:57:27;;;;;;;1.45;1.08;;;;;;;18.45;100.00;93478.53;5138036;27;20204;-81
2021/07/05 09:59:55;;;;;;;1.63;1.10;;;;;;;18.25;100.00;93481.03;5139757;27;20204;-80
2021/07/05 10:02:22;;;;;;;2.22;1.00;;;;;;;18.12;100.00;93477.03;5144942;27;20196;-80
2021/07/05 10:04:48;;;;;;;1.77;0.95;;;;;;;18.11;100.00;93470.13;5143578;27;20197;-82
2021/07/05 10:07:17;;;;;;;2.40;1.00;;;;;;;18.28;100.00;93469.97;5141975;27;20478;-82
2021/07/05 10:09:45;;;;;;;1.42;1.17;;;;;;;18.13;100.00;93470.66;5141816;27;20204;-83
2021/07/05 10:12:20;;;;;;;1.38;1.00;;;;;;;18.24;100.00;93464.41;5139651;27;20224;-84
2021/07/05 10:15:04;;;;;;;1.00;0.80;;;;;;;18.23;100.00;93472.59;5140616;27;20227;-84
2021/07/05 10:17:32;;;;;;;1.73;0.73;;;;;;;18.44;100.00;93469.00;5141182;27;20203;-83
2021/07/05 10:19:59;;;;;;;1.13;0.85;;;;;;;18.42;100.00;93473.75;5140727;27;20200;-79
2021/07/05 10:22:27;;;;;;;1.48;0.90;;;;;;;18.17;100.00;93473.59;5137594;27;20555;-81
2021/07/05 10:24:55;;;;;;;2.15;1.00;;;;;;;18.09;100.00;93478.31;5138264;27;20207;-80
2021/07/05 10:27:22;;;;;;;1.13;0.65;;;;;;;18.38;100.00;93483.25;5137080;27;20200;-80
2021/07/05 10:29:51;;;;;;;1.63;0.93;;;;;;;18.72;100.00;93479.44;5136564;27;20606;-79
2021/07/05 10:32:18;;;;;;;0.80;0.80;;;;;;;18.86;100.00;93473.44;5136785;27;20231;-80
2021/07/05 10:34:50;;;;;;;1.70;0.90;;;;;;;19.09;100.00;93479.34;5136773;27;20208;-81
2021/07/05 10:37:30;;;;;;;0.93;0.80;;;;;;;18.77;100.00;93477.63;5137683;27;20397;-80
2021/07/05 10:39:57;;;;;;;1.40;0.90;;;;;;;18.49;100.00;93486.75;5136951;27;20201;-81
2021/07/05 10:42:32;;;;;;;5.05;0.70;;;;;;;18.48;100.00;93483.31;5137197;27;20201;-80
2021/07/05 10:45:03;;;;;;;1.08;0.60;;;;;;;18.30;100.00;93484.53;5137762;27;20657;-79
2021/07/05 10:47:48;;;;;;;1.50;0.70;;;;;;;18.38;100.00;93488.53;5136729;27;20434;-81
2021/07/05 10:50:38;;;;;;;1.55;0.88;;;;;;;18.38;100.00;93483.25;5137141;27;20201;-80
2021/07/05 10:53:06;;;;;;;1.23;0.82;;;;;;;18.55;100.00;93474.34;5136519;27;20228;-80
2021/07/05 10:55:36;;;;;;;0.95;0.65;;;;;;;18.14;100.00;93477.56;5137040;27;20196;-81
2021/07/05 10:58:03;;;;;;;1.77;0.60;;;;;;;18.30;100.00;93479.25;5138277;27;20196;-79
2021/07/05 11:00:41;;;;;;;0.70;0.70;;;;;;;18.41;100.00;93485.38;5137330;27;20204;-81
2021/07/05 11:03:09;;;;;;;1.17;0.90;;;;;;;18.77;100.00;93476.81;5136870;27;20207;-80
2021/07/05 11:05:42;;;;;;;0.50;0.50;;;;;;;19.09;100.00;93481.19;5136287;27;20196;-81
2021/07/05 11:08:26;;;;;;;0.90;0.75;;;;;;;19.47;100.00;93485.25;5136264;27;20236;-80
2021/07/05 11:11:18;;;;;;;1.67;0.60;;;;;;;19.76;94.45;93479.47;5138136;27;20245;-80
2021/07/05 11:13:47;;;;;;;1.98;0.65;;;;;;;20.19;93.97;93479.97;5136316;27;20655;-80
2021/07/05 11:16:14;;;;;;;1.38;0.85;;;;;;;20.60;91.45;93474.59;5136048;27;20287;-79
2021/07/05 11:19:11;;;;;;;0.93;0.60;;;;;;;20.30;88.97;93473.59;5136599;27;20201;-79
2021/07/05 11:22:02;;;;;;;1.08;0.40;;;;;;;19.79;90.86;93476.28;5136496;27;20207;-79
2021/07/05 11:25:04;;;;;;;1.13;0.70;;;;;;;18.88;95.00;93478.47;5137340;27;20204;-79
2021/07/05 11:27:58;;;;;;;0.73;0.73;;;;;;;18.60;100.00;93487.56;5135935;27;20200;-81
2021/07/05 11:30:36;;;;;;;1.77;0.60;;;;;;;18.53;100.00;93492.31;5095440;28;20289;-79
2021/07/05 11:33:29;;;;;;;1.77;0.80;;;;;;;18.28;100.00;93491.09;5093937;28;20460;-80